createdAt,value
2024-05-09T00:00:06.397Z,27.16
2024-05-09T00:00:39.160Z,27.16
2024-05-09T00:01:04.214Z,27.19
2024-05-09T00:01:34.354Z,27.18
2024-05-09T00:02:04.307Z,27.15
2024-05-09T00:02:34.465Z,27.15
2024-05-09T00:03:04.507Z,27.15
2024-05-09T00:03:34.495Z,27.16
2024-05-09T00:04:04.656Z,27.13
2024-05-09T00:04:34.516Z,27.13
2024-05-09T00:05:04.734Z,27.12
2024-05-09T00:05:34.812Z,27.15
2024-05-09T00:06:04.682Z,27.13
2024-05-09T00:06:34.656Z,27.16
2024-05-09T00:07:04.744Z,27.13
2024-05-09T00:07:34.827Z,27.15
2024-05-09T00:08:05.090Z,27.13
2024-05-09T00:08:35.143Z,27.16
2024-05-09T00:09:05.010Z,27.15
2024-05-09T00:09:35.087Z,27.15
2024-05-09T00:10:07.137Z,27.18
2024-05-09T00:10:37.959Z,27.18
2024-05-09T00:11:05.535Z,27.19
2024-05-09T00:11:35.478Z,27.20
2024-05-09T00:12:05.713Z,27.18
2024-05-09T00:12:35.471Z,27.19
2024-05-09T00:13:05.692Z,27.20
2024-05-09T00:13:35.644Z,27.18
2024-05-09T00:14:05.764Z,27.22
2024-05-09T00:14:35.780Z,27.23
2024-05-09T00:15:05.714Z,27.23
2024-05-09T00:15:36.455Z,27.26
2024-05-09T00:16:05.865Z,27.26
2024-05-09T00:16:35.934Z,27.27
2024-05-09T00:17:06.228Z,27.30
2024-05-09T00:17:36.200Z,27.29
2024-05-09T00:18:06.815Z,27.26
2024-05-09T00:18:36.278Z,27.33
2024-05-09T00:19:06.447Z,27.32
2024-05-09T00:19:36.417Z,27.32
2024-05-09T00:20:14.280Z,27.33
2024-05-09T00:20:39.802Z,27.30
2024-05-09T00:21:06.727Z,27.30
2024-05-09T00:21:36.884Z,27.32
2024-05-09T00:22:06.644Z,27.32
2024-05-09T00:23:07.231Z,27.33
2024-05-09T00:23:36.808Z,27.34
2024-05-09T00:24:06.724Z,27.33
2024-05-09T00:24:36.810Z,27.34
2024-05-09T00:25:06.880Z,27.32
2024-05-09T00:25:36.971Z,27.34
2024-05-09T00:26:07.120Z,27.33
2024-05-09T00:26:37.162Z,27.33
2024-05-09T00:27:08.332Z,27.34
2024-05-09T00:27:37.110Z,27.33
2024-05-09T00:28:07.204Z,27.36
2024-05-09T00:28:37.256Z,27.36
2024-05-09T00:29:07.414Z,27.34
2024-05-09T00:29:37.393Z,27.33
2024-05-09T00:30:07.527Z,27.32
2024-05-09T00:30:37.719Z,27.32
2024-05-09T00:31:07.397Z,27.30
2024-05-09T00:31:37.457Z,27.32
2024-05-09T00:32:07.569Z,27.30
2024-05-09T00:32:37.764Z,27.30
2024-05-09T00:33:09.141Z,27.32
2024-05-09T00:33:37.937Z,27.32
2024-05-09T00:34:07.765Z,27.32
2024-05-09T00:34:37.741Z,27.32
2024-05-09T00:35:07.792Z,27.33
2024-05-09T00:35:38.436Z,27.30
2024-05-09T00:36:07.920Z,27.30
2024-05-09T00:36:37.955Z,27.27
2024-05-09T00:37:07.995Z,27.26
2024-05-09T00:37:38.016Z,27.29
2024-05-09T00:38:08.393Z,27.27
2024-05-09T00:38:38.176Z,27.27
2024-05-09T00:39:08.239Z,27.25
2024-05-09T00:39:38.277Z,27.23
2024-05-09T00:40:15.069Z,27.20
2024-05-09T00:40:41.055Z,27.26
2024-05-09T00:41:08.366Z,27.23
2024-05-09T00:41:38.536Z,27.23
2024-05-09T00:42:08.469Z,27.22
2024-05-09T00:42:38.548Z,27.23
2024-05-09T00:43:08.636Z,27.23
2024-05-09T00:43:38.715Z,27.22
2024-05-09T00:44:08.812Z,27.20
2024-05-09T00:44:39.158Z,27.23
2024-05-09T00:45:08.926Z,27.19
2024-05-09T00:45:39.038Z,27.18
2024-05-09T00:46:09.017Z,27.19
2024-05-09T00:46:39.089Z,27.19
2024-05-09T00:47:09.341Z,27.18
2024-05-09T00:47:39.320Z,27.15
2024-05-09T00:48:10.515Z,27.15
2024-05-09T00:48:39.450Z,27.13
2024-05-09T00:49:09.442Z,27.13
2024-05-09T00:49:39.520Z,27.12
2024-05-09T00:50:12.867Z,27.12
2024-05-09T00:50:39.551Z,27.10
2024-05-09T00:51:09.472Z,27.12
2024-05-09T00:51:39.534Z,27.10
2024-05-09T00:52:09.604Z,27.10
2024-05-09T00:52:39.688Z,27.12
2024-05-09T00:53:09.850Z,27.10
2024-05-09T00:53:39.892Z,27.10
2024-05-09T00:54:09.890Z,27.09
2024-05-09T00:54:39.853Z,27.08
2024-05-09T00:55:09.944Z,27.06
2024-05-09T00:55:40.195Z,27.10
2024-05-09T00:56:10.175Z,27.09
2024-05-09T00:56:40.189Z,27.10
2024-05-09T00:57:10.214Z,27.10
2024-05-09T00:57:40.301Z,27.09
2024-05-09T00:58:10.378Z,27.10
2024-05-09T00:58:40.489Z,27.13
2024-05-09T00:59:10.586Z,27.13
2024-05-09T00:59:40.729Z,27.13
2024-05-09T01:00:22.376Z,27.13
2024-05-09T01:00:41.667Z,27.16
2024-05-09T01:01:10.783Z,27.16
2024-05-09T01:01:40.975Z,27.18
2024-05-09T01:02:11.008Z,27.19
2024-05-09T01:02:40.967Z,27.19
2024-05-09T01:03:13.062Z,27.20
2024-05-09T01:03:41.228Z,27.19
2024-05-09T01:04:11.514Z,27.19
2024-05-09T01:04:41.151Z,27.22
2024-05-09T01:05:11.349Z,27.23
2024-05-09T01:05:41.619Z,27.23
2024-05-09T01:06:11.322Z,27.23
2024-05-09T01:06:41.399Z,27.25
2024-05-09T01:07:11.475Z,27.25
2024-05-09T01:07:41.598Z,27.23
2024-05-09T01:08:12.104Z,27.25
2024-05-09T01:08:41.685Z,27.25
2024-05-09T01:09:11.746Z,27.23
2024-05-09T01:09:41.831Z,27.25
2024-05-09T01:10:17.373Z,27.23
2024-05-09T01:10:44.821Z,27.23
2024-05-09T01:11:12.121Z,27.20
2024-05-09T01:11:42.096Z,27.23
2024-05-09T01:12:12.354Z,27.22
2024-05-09T01:12:42.254Z,27.22
2024-05-09T01:13:12.271Z,27.20
2024-05-09T01:13:42.362Z,27.22
2024-05-09T01:14:12.379Z,27.22
2024-05-09T01:14:42.361Z,27.23
2024-05-09T01:15:12.446Z,27.23
2024-05-09T01:15:42.512Z,27.22
2024-05-09T01:16:12.586Z,27.22
2024-05-09T01:16:42.708Z,27.25
2024-05-09T01:17:12.806Z,27.20
2024-05-09T01:17:43.001Z,27.22
2024-05-09T01:18:13.909Z,27.22
2024-05-09T01:18:43.041Z,27.23
2024-05-09T01:19:13.028Z,27.20
2024-05-09T01:19:43.133Z,27.20
2024-05-09T01:20:19.831Z,27.22
2024-05-09T01:20:44.930Z,27.25
2024-05-09T01:21:13.269Z,27.18
2024-05-09T01:21:43.266Z,27.18
2024-05-09T01:22:13.343Z,27.19
2024-05-09T01:22:43.472Z,27.20
2024-05-09T01:23:15.076Z,27.19
2024-05-09T01:23:43.514Z,27.20
2024-05-09T01:24:13.467Z,27.20
2024-05-09T01:24:43.548Z,27.18
2024-05-09T01:25:13.629Z,27.20
2024-05-09T01:25:43.928Z,27.20
2024-05-09T01:26:13.798Z,27.20
2024-05-09T01:26:43.800Z,27.19
2024-05-09T01:27:13.874Z,27.22
2024-05-09T01:27:43.958Z,27.22
2024-05-09T01:28:14.059Z,27.20
2024-05-09T01:28:44.158Z,27.20
2024-05-09T01:29:14.247Z,27.19
2024-05-09T01:29:44.328Z,27.20
2024-05-09T01:30:17.457Z,27.20
2024-05-09T01:30:44.495Z,27.20
2024-05-09T01:31:14.555Z,27.19
2024-05-09T01:33:03.222Z,27.13
2024-05-09T01:33:33.481Z,27.13
2024-05-09T01:34:03.001Z,27.15
2024-05-09T01:34:32.929Z,27.13
2024-05-09T01:35:03.005Z,27.16
2024-05-09T01:35:33.131Z,27.16
2024-05-09T01:36:03.072Z,27.15
2024-05-09T01:36:33.113Z,27.13
2024-05-09T01:37:03.140Z,27.16
2024-05-09T01:37:33.160Z,27.13
2024-05-09T01:38:03.280Z,27.15
2024-05-09T01:38:33.520Z,27.15
2024-05-09T01:39:03.353Z,27.15
2024-05-09T01:39:33.366Z,27.15
2024-05-09T01:40:03.649Z,27.18
2024-05-09T01:40:38.028Z,27.18
2024-05-09T01:41:03.561Z,27.15
2024-05-09T01:41:33.526Z,27.16
2024-05-09T01:42:03.597Z,27.16
2024-05-09T01:42:33.611Z,27.15
2024-05-09T01:43:03.680Z,27.16
2024-05-09T01:43:33.761Z,27.15
2024-05-09T01:44:03.883Z,27.13
2024-05-09T01:44:33.981Z,27.13
2024-05-09T01:45:03.963Z,27.15
2024-05-09T01:45:34.031Z,27.13
2024-05-09T01:46:04.111Z,27.13
2024-05-09T01:46:34.181Z,27.12
2024-05-09T01:47:04.333Z,27.13
2024-05-09T01:47:34.458Z,27.10
2024-05-09T01:48:04.831Z,27.10
2024-05-09T01:48:34.427Z,27.10
2024-05-09T01:49:04.566Z,27.10
2024-05-09T01:49:34.437Z,27.12
2024-05-09T01:50:06.788Z,27.12
2024-05-09T01:50:39.426Z,27.08
2024-05-09T01:51:04.575Z,27.09
2024-05-09T01:51:34.628Z,27.08
2024-05-09T01:52:04.717Z,27.09
2024-05-09T01:52:34.780Z,27.06
2024-05-09T01:53:04.962Z,27.08
2024-05-09T01:53:35.045Z,27.06
2024-05-09T01:54:34.890Z,27.09
2024-05-09T01:55:06.613Z,27.06
2024-05-09T01:55:35.064Z,27.03
2024-05-09T01:56:05.204Z,27.02
2024-05-09T01:56:35.233Z,27.05
2024-05-09T01:57:05.229Z,27.06
2024-05-09T01:58:05.324Z,27.03
2024-05-09T01:58:35.302Z,27.02
2024-05-09T01:59:05.389Z,27.03
2024-05-09T01:59:35.511Z,27.03
2024-05-09T02:00:07.640Z,27.01
2024-05-09T02:00:40.060Z,27.03
2024-05-09T02:01:05.794Z,27.01
2024-05-09T02:01:55.614Z,27.02
2024-05-09T02:02:05.929Z,26.99
2024-05-09T02:02:35.891Z,27.03
2024-05-09T02:03:05.990Z,27.01
2024-05-09T02:03:35.903Z,27.02
2024-05-09T02:04:06.383Z,27.03
2024-05-09T02:04:36.142Z,27.03
2024-05-09T02:05:06.396Z,27.03
2024-05-09T02:05:36.183Z,27.03
2024-05-09T02:06:06.423Z,27.06
2024-05-09T02:06:36.267Z,27.08
2024-05-09T02:07:06.391Z,27.09
2024-05-09T02:07:36.447Z,27.05
2024-05-09T02:08:06.574Z,27.08
2024-05-09T02:08:36.574Z,27.08
2024-05-09T02:09:06.519Z,27.09
2024-05-09T02:09:36.598Z,27.12
2024-05-09T02:10:10.977Z,27.10
2024-05-09T02:10:36.768Z,27.09
2024-05-09T02:11:06.939Z,27.12
2024-05-09T02:11:36.949Z,27.12
2024-05-09T02:12:07.079Z,27.10
2024-05-09T02:12:37.026Z,27.09
2024-05-09T02:13:07.029Z,27.09
2024-05-09T02:13:37.111Z,27.08
2024-05-09T02:14:07.217Z,27.09
2024-05-09T02:14:37.487Z,27.08
2024-05-09T02:15:07.360Z,27.09
2024-05-09T02:15:37.445Z,27.10
2024-05-09T02:16:07.523Z,27.08
2024-05-09T02:16:37.585Z,27.10
2024-05-09T02:17:07.740Z,27.08
2024-05-09T02:17:38.004Z,27.06
2024-05-09T02:18:08.079Z,27.05
2024-05-09T02:18:37.923Z,27.06
2024-05-09T02:19:08.105Z,27.05
2024-05-09T02:19:38.082Z,27.08
2024-05-09T02:20:13.121Z,27.06
2024-05-09T02:20:38.232Z,27.06
2024-05-09T02:21:08.465Z,27.06
2024-05-09T02:21:38.319Z,27.08
2024-05-09T02:22:08.384Z,27.06
2024-05-09T02:22:38.460Z,27.05
2024-05-09T02:23:08.897Z,27.05
2024-05-09T02:23:38.793Z,27.09
2024-05-09T02:24:08.638Z,27.06
2024-05-09T02:24:38.739Z,27.08
2024-05-09T02:25:08.818Z,27.03
2024-05-09T02:25:38.867Z,27.06
2024-05-09T02:26:08.998Z,27.06
2024-05-09T02:26:39.041Z,27.05
2024-05-09T02:27:09.002Z,27.03
2024-05-09T02:27:39.011Z,27.06
2024-05-09T02:28:09.113Z,27.06
2024-05-09T02:28:39.163Z,27.02
2024-05-09T02:29:09.325Z,27.03
2024-05-09T02:29:39.366Z,27.02
2024-05-09T02:30:18.533Z,27.02
2024-05-09T02:30:41.629Z,27.03
2024-05-09T02:31:09.370Z,27.02
2024-05-09T02:31:39.440Z,27.01
2024-05-09T02:32:09.611Z,27.01
2024-05-09T02:32:39.740Z,27.02
2024-05-09T02:33:11.453Z,27.01
2024-05-09T02:33:39.738Z,26.99
2024-05-09T02:34:09.755Z,26.99
2024-05-09T02:34:39.879Z,26.97
2024-05-09T02:35:09.863Z,27.01
2024-05-09T02:35:39.994Z,26.99
2024-05-09T02:36:09.939Z,26.99
2024-05-09T02:36:39.984Z,26.98
2024-05-09T02:37:10.026Z,26.95
2024-05-09T02:37:40.032Z,26.99
2024-05-09T02:38:10.676Z,26.97
2024-05-09T02:38:40.171Z,26.98
2024-05-09T02:39:10.225Z,26.95
2024-05-09T02:39:40.263Z,26.95
2024-05-09T02:40:14.698Z,26.97
2024-05-09T02:40:40.798Z,26.95
2024-05-09T02:41:10.540Z,26.92
2024-05-09T02:41:40.480Z,26.94
2024-05-09T02:42:10.513Z,26.92
2024-05-09T02:42:40.554Z,26.95
2024-05-09T02:43:11.588Z,26.97
2024-05-09T02:43:40.723Z,26.95
2024-05-09T02:44:10.828Z,26.98
2024-05-09T02:44:40.758Z,26.99
2024-05-09T02:45:10.839Z,26.99
2024-05-09T02:45:40.945Z,26.98
2024-05-09T02:46:11.025Z,26.99
2024-05-09T02:46:41.086Z,26.99
2024-05-09T02:47:11.247Z,27.01
2024-05-09T02:47:41.498Z,27.01
2024-05-09T02:48:12.082Z,26.98
2024-05-09T02:48:41.462Z,27.01
2024-05-09T02:49:11.712Z,27.01
2024-05-09T02:49:41.440Z,27.02
2024-05-09T02:50:16.126Z,27.03
2024-05-09T02:50:42.068Z,27.01
2024-05-09T02:51:11.745Z,27.02
2024-05-09T02:51:41.697Z,26.99
2024-05-09T02:52:11.766Z,27.01
2024-05-09T02:52:41.848Z,26.99
2024-05-09T02:53:12.195Z,26.99
2024-05-09T02:53:42.061Z,26.99
2024-05-09T02:54:12.131Z,26.99
2024-05-09T02:54:42.203Z,27.01
2024-05-09T02:55:12.293Z,27.01
2024-05-09T02:55:43.055Z,26.99
2024-05-09T02:56:12.557Z,26.98
2024-05-09T02:56:42.521Z,26.97
2024-05-09T02:57:12.493Z,26.98
2024-05-09T02:57:42.561Z,26.98
2024-05-09T02:58:12.891Z,26.97
2024-05-09T02:58:42.764Z,26.97
2024-05-09T02:59:12.776Z,26.97
2024-05-09T02:59:42.747Z,26.97
2024-05-09T03:00:18.856Z,26.98
2024-05-09T03:00:43.264Z,26.98
2024-05-09T03:01:13.027Z,26.95
2024-05-09T03:01:43.150Z,26.97
2024-05-09T03:02:13.137Z,26.95
2024-05-09T03:02:43.265Z,26.97
2024-05-09T03:03:15.179Z,26.97
2024-05-09T03:03:43.335Z,26.95
2024-05-09T03:04:13.303Z,26.94
2024-05-09T03:04:43.539Z,26.95
2024-05-09T03:05:13.454Z,26.95
2024-05-09T03:05:43.821Z,26.95
2024-05-09T03:06:13.423Z,26.94
2024-05-09T03:06:43.514Z,26.94
2024-05-09T03:07:13.598Z,26.95
2024-05-09T03:07:43.699Z,26.92
2024-05-09T03:08:13.893Z,26.91
2024-05-09T03:08:43.688Z,26.91
2024-05-09T03:09:13.754Z,26.92
2024-05-09T03:09:43.820Z,26.92
2024-05-09T03:10:21.931Z,26.94
2024-05-09T03:10:44.080Z,26.91
2024-05-09T03:11:14.044Z,26.91
2024-05-09T03:11:44.197Z,26.91
2024-05-09T03:12:14.155Z,26.88
2024-05-09T03:12:44.158Z,26.90
2024-05-09T03:13:15.584Z,26.91
2024-05-09T03:13:44.302Z,26.88
2024-05-09T03:14:14.283Z,26.88
2024-05-09T03:14:44.275Z,26.87
2024-05-09T03:15:14.347Z,26.87
2024-05-09T03:15:44.839Z,26.88
2024-05-09T03:16:14.552Z,26.85
2024-05-09T03:16:44.548Z,26.87
2024-05-09T03:17:14.621Z,26.87
2024-05-09T03:17:44.886Z,26.88
2024-05-09T03:18:14.822Z,26.88
2024-05-09T03:18:44.938Z,26.85
2024-05-09T03:19:14.941Z,26.85
2024-05-09T03:19:44.920Z,26.85
2024-05-09T03:20:20.700Z,26.87
2024-05-09T03:20:45.153Z,26.88
2024-05-09T03:21:15.213Z,26.87
2024-05-09T03:21:45.148Z,26.85
2024-05-09T03:22:15.240Z,26.87
2024-05-09T03:22:45.356Z,26.84
2024-05-09T03:23:15.373Z,26.85
2024-05-09T03:23:45.591Z,26.87
2024-05-09T03:24:15.427Z,26.84
2024-05-09T03:24:45.507Z,26.84
2024-05-09T03:25:15.549Z,26.80
2024-05-09T03:25:45.970Z,26.82
2024-05-09T03:26:15.756Z,26.82
2024-05-09T03:27:15.827Z,26.84
2024-05-09T03:27:45.896Z,26.84
2024-05-09T03:28:15.962Z,26.81
2024-05-09T03:28:46.046Z,26.81
2024-05-09T03:29:16.140Z,26.82
2024-05-09T03:29:46.221Z,26.85
2024-05-09T03:30:28.823Z,26.81
2024-05-09T03:30:46.394Z,26.85
2024-05-09T03:31:16.477Z,26.84
2024-05-09T03:31:46.666Z,26.81
2024-05-09T03:32:16.724Z,26.84
2024-05-09T03:32:46.962Z,26.84
2024-05-09T03:33:17.662Z,26.85
2024-05-09T03:33:47.026Z,26.87
2024-05-09T03:34:16.961Z,26.87
2024-05-09T03:34:46.922Z,26.85
2024-05-09T03:35:16.986Z,26.85
2024-05-09T03:35:47.489Z,26.85
2024-05-09T03:36:17.118Z,26.88
2024-05-09T03:36:47.158Z,26.88
2024-05-09T03:37:17.183Z,26.91
2024-05-09T03:37:47.254Z,26.90
2024-05-09T03:38:17.504Z,26.90
2024-05-09T03:39:17.206Z,26.90
2024-05-09T03:39:47.245Z,26.88
2024-05-09T03:40:23.417Z,26.87
2024-05-09T03:40:47.698Z,26.88
2024-05-09T03:41:17.395Z,26.88
2024-05-09T03:41:47.462Z,26.88
2024-05-09T03:42:17.506Z,26.88
2024-05-09T03:42:47.570Z,26.88
2024-05-09T03:43:17.642Z,26.88
2024-05-09T03:43:47.765Z,26.88
2024-05-09T03:44:17.787Z,26.85
2024-05-09T03:44:47.755Z,26.82
2024-05-09T03:45:17.850Z,26.85
2024-05-09T03:45:47.947Z,26.82
2024-05-09T03:46:17.902Z,26.84
2024-05-09T03:46:48.032Z,26.81
2024-05-09T03:47:18.107Z,26.80
2024-05-09T03:47:48.236Z,26.81
2024-05-09T03:48:18.361Z,26.80
2024-05-09T03:48:48.213Z,26.78
2024-05-09T03:49:18.420Z,26.78
2024-05-09T03:49:48.361Z,26.78
2024-05-09T03:50:25.912Z,26.81
2024-05-09T03:50:48.484Z,26.78
2024-05-09T03:51:18.530Z,26.75
2024-05-09T03:51:48.537Z,26.78
2024-05-09T03:52:18.598Z,26.77
2024-05-09T03:52:48.688Z,26.75
2024-05-09T03:53:18.837Z,26.78
2024-05-09T03:53:48.900Z,26.77
2024-05-09T03:54:18.854Z,26.75
2024-05-09T03:54:48.936Z,26.77
2024-05-09T03:55:19.023Z,26.78
2024-05-09T03:55:49.147Z,26.80
2024-05-09T03:56:19.259Z,26.80
2024-05-09T03:56:49.261Z,26.78
2024-05-09T03:57:19.327Z,26.80
2024-05-09T03:57:49.410Z,26.80
2024-05-09T03:58:19.491Z,26.78
2024-05-09T03:58:49.523Z,26.78
2024-05-09T03:59:19.638Z,26.78
2024-05-09T03:59:49.599Z,26.81
2024-05-09T04:00:30.033Z,26.78
2024-05-09T04:00:49.869Z,26.78
2024-05-09T04:01:19.811Z,26.80
2024-05-09T04:01:49.963Z,26.82
2024-05-09T04:02:19.897Z,26.75
2024-05-09T04:02:49.948Z,26.75
2024-05-09T04:03:20.548Z,26.77
2024-05-09T04:03:50.188Z,26.81
2024-05-09T04:04:50.419Z,26.75
2024-05-09T04:05:20.239Z,26.80
2024-05-09T04:05:50.286Z,26.80
2024-05-09T04:06:20.277Z,26.78
2024-05-09T04:06:50.334Z,26.77
2024-05-09T04:07:20.608Z,26.78
2024-05-09T04:07:50.486Z,26.80
2024-05-09T04:08:50.498Z,26.84
2024-05-09T04:09:20.567Z,26.81
2024-05-09T04:09:50.650Z,26.78
2024-05-09T04:10:27.798Z,26.80
2024-05-09T04:10:50.829Z,26.82
2024-05-09T04:11:20.954Z,26.82
2024-05-09T04:11:50.968Z,26.81
2024-05-09T04:12:20.949Z,26.81
2024-05-09T04:12:51.004Z,26.80
2024-05-09T04:13:21.090Z,26.78
2024-05-09T04:13:51.245Z,26.81
2024-05-09T04:14:21.265Z,26.81
2024-05-09T04:14:51.313Z,26.84
2024-05-09T04:15:21.461Z,26.81
2024-05-09T04:15:51.444Z,26.84
2024-05-09T04:16:21.550Z,26.87
2024-05-09T04:16:51.671Z,26.82
2024-05-09T04:17:21.679Z,26.81
2024-05-09T04:17:51.932Z,26.82
2024-05-09T04:18:21.834Z,26.84
2024-05-09T04:18:51.904Z,26.82
2024-05-09T04:19:22.145Z,26.85
2024-05-09T04:19:51.967Z,26.88
2024-05-09T04:20:32.969Z,26.88
2024-05-09T04:20:52.095Z,26.87
2024-05-09T04:21:22.083Z,26.85
2024-05-09T04:21:52.168Z,26.90
2024-05-09T04:22:22.231Z,26.85
2024-05-09T04:22:52.356Z,26.87
2024-05-09T04:23:22.347Z,26.87
2024-05-09T04:23:52.417Z,26.85
2024-05-09T04:24:22.480Z,26.88
2024-05-09T04:24:52.559Z,26.87
2024-05-09T04:25:22.640Z,26.87
2024-05-09T04:25:52.813Z,26.91
2024-05-09T04:26:22.849Z,26.88
2024-05-09T04:26:52.856Z,26.90
2024-05-09T04:27:22.916Z,26.90
2024-05-09T04:27:52.996Z,26.88
2024-05-09T04:28:23.074Z,26.90
2024-05-09T04:28:53.187Z,26.85
2024-05-09T04:29:23.285Z,26.85
2024-05-09T04:29:53.281Z,26.88
2024-05-09T04:30:33.770Z,26.90
2024-05-09T04:30:53.460Z,26.90
2024-05-09T04:31:23.522Z,26.88
2024-05-09T04:31:53.728Z,26.88
2024-05-09T04:32:23.751Z,26.87
2024-05-09T04:32:53.703Z,26.92
2024-05-09T04:33:23.940Z,26.91
2024-05-09T04:33:53.883Z,26.92
2024-05-09T04:34:23.896Z,26.91
2024-05-09T04:34:53.878Z,26.94
2024-05-09T04:35:24.050Z,26.88
2024-05-09T04:35:53.955Z,26.91
2024-05-09T04:36:23.981Z,26.97
2024-05-09T04:36:53.995Z,26.92
2024-05-09T04:37:24.032Z,26.95
2024-05-09T04:37:54.130Z,26.98
2024-05-09T04:38:24.193Z,26.98
2024-05-09T04:38:54.139Z,26.98
2024-05-09T04:39:24.157Z,26.99
2024-05-09T04:39:54.201Z,26.99
2024-05-09T04:40:31.423Z,26.99
2024-05-09T04:40:54.294Z,27.01
2024-05-09T04:41:24.277Z,27.01
2024-05-09T04:41:54.348Z,27.01
2024-05-09T04:42:24.367Z,27.03
2024-05-09T04:42:54.429Z,27.05
2024-05-09T04:43:24.527Z,27.09
2024-05-09T04:43:54.698Z,27.03
2024-05-09T04:44:24.661Z,27.05
2024-05-09T04:44:56.513Z,27.06
2024-05-09T04:45:24.823Z,27.05
2024-05-09T04:45:54.908Z,27.06
2024-05-09T04:46:25.000Z,27.08
2024-05-09T04:46:55.084Z,27.09
2024-05-09T04:47:25.293Z,27.06
2024-05-09T04:47:55.495Z,27.12
2024-05-09T04:48:25.354Z,27.06
2024-05-09T04:48:55.359Z,27.09
2024-05-09T04:49:25.600Z,27.09
2024-05-09T04:49:55.375Z,27.10
2024-05-09T04:50:55.428Z,27.09
2024-05-09T04:51:25.398Z,27.10
2024-05-09T04:51:55.492Z,27.12
2024-05-09T04:52:25.559Z,27.09
2024-05-09T04:52:55.647Z,27.08
2024-05-09T04:53:25.790Z,27.05
2024-05-09T04:53:55.759Z,27.05
2024-05-09T04:54:33.995Z,27.09
2024-05-09T04:54:58.518Z,27.06
2024-05-09T04:55:25.917Z,27.02
2024-05-09T04:55:56.035Z,27.03
2024-05-09T04:56:26.189Z,27.03
2024-05-09T04:56:56.112Z,27.03
2024-05-09T04:57:26.181Z,27.01
2024-05-09T04:57:56.255Z,27.02
2024-05-09T04:58:26.324Z,27.01
2024-05-09T04:58:56.463Z,27.02
2024-05-09T04:59:26.465Z,27.01
2024-05-09T04:59:56.410Z,27.01
2024-05-09T05:00:34.556Z,26.97
2024-05-09T05:00:56.600Z,26.97
2024-05-09T05:01:26.666Z,26.95
2024-05-09T05:01:56.807Z,26.95
2024-05-09T05:02:26.797Z,26.95
2024-05-09T05:02:56.847Z,26.97
2024-05-09T05:03:26.925Z,26.97
2024-05-09T05:03:57.258Z,26.97
2024-05-09T05:04:27.005Z,26.97
2024-05-09T05:04:57.113Z,26.95
2024-05-09T05:05:27.029Z,26.95
2024-05-09T05:05:57.323Z,26.97
2024-05-09T05:06:27.081Z,26.97
2024-05-09T05:06:59.657Z,26.94
2024-05-09T05:07:27.143Z,26.98
2024-05-09T05:07:57.228Z,26.97
2024-05-09T05:08:27.388Z,26.98
2024-05-09T05:08:57.318Z,26.95
2024-05-09T05:09:27.376Z,26.94
2024-05-09T05:09:57.446Z,26.94
2024-05-09T05:10:33.647Z,26.97
2024-05-09T05:10:57.648Z,26.94
2024-05-09T05:11:27.708Z,26.95
2024-05-09T05:11:57.698Z,26.97
2024-05-09T05:12:27.771Z,26.95
2024-05-09T05:12:57.758Z,26.97
2024-05-09T05:13:27.845Z,26.99
2024-05-09T05:13:58.024Z,26.99
2024-05-09T05:14:28.208Z,26.98
2024-05-09T05:14:58.075Z,27.01
2024-05-09T05:15:28.173Z,27.02
2024-05-09T05:15:58.729Z,27.03
2024-05-09T05:16:28.326Z,27.05
2024-05-09T05:16:58.457Z,27.03
2024-05-09T05:17:28.579Z,27.05
2024-05-09T05:17:58.739Z,27.03
2024-05-09T05:18:28.795Z,27.03
2024-05-09T05:18:58.721Z,27.03
2024-05-09T05:19:28.931Z,27.03
2024-05-09T05:19:58.832Z,27.03
2024-05-09T05:20:33.537Z,27.03
2024-05-09T05:20:59.162Z,27.06
2024-05-09T05:21:28.982Z,27.05
2024-05-09T05:21:58.974Z,27.06
2024-05-09T05:22:29.039Z,27.03
2024-05-09T05:22:59.189Z,27.12
2024-05-09T05:23:29.247Z,27.08
2024-05-09T05:23:59.238Z,27.06
2024-05-09T05:24:29.337Z,27.10
2024-05-09T05:24:59.384Z,27.08
2024-05-09T05:25:29.461Z,27.08
2024-05-09T05:25:59.649Z,27.06
2024-05-09T05:26:29.711Z,27.09
2024-05-09T05:26:59.665Z,27.09
2024-05-09T05:27:29.743Z,27.09
2024-05-09T05:27:59.805Z,27.12
2024-05-09T05:28:29.894Z,27.12
2024-05-09T05:29:00.032Z,27.16
2024-05-09T05:29:30.043Z,27.15
2024-05-09T05:30:00.013Z,27.12
2024-05-09T05:30:34.501Z,27.12
2024-05-09T05:31:00.142Z,27.12
2024-05-09T05:31:30.278Z,27.13
2024-05-09T05:32:00.411Z,27.12
2024-05-09T05:32:30.522Z,27.15
2024-05-09T05:33:00.642Z,27.09
2024-05-09T05:33:30.607Z,27.09
2024-05-09T05:34:00.645Z,27.10
2024-05-09T05:34:30.603Z,27.06
2024-05-09T05:35:00.757Z,27.06
2024-05-09T05:35:30.767Z,27.06
2024-05-09T05:36:00.735Z,27.08
2024-05-09T05:36:30.801Z,27.06
2024-05-09T05:37:00.818Z,27.03
2024-05-09T05:37:30.833Z,27.08
2024-05-09T05:38:00.940Z,27.08
2024-05-09T05:38:30.977Z,27.06
2024-05-09T05:39:00.997Z,27.05
2024-05-09T05:39:31.040Z,27.06
2024-05-09T05:40:01.080Z,27.03
2024-05-09T05:40:36.387Z,27.03
2024-05-09T05:41:01.266Z,27.02
2024-05-09T05:41:31.287Z,27.05
2024-05-09T05:42:01.230Z,27.08
2024-05-09T05:42:31.235Z,27.06
2024-05-09T05:43:01.312Z,27.08
2024-05-09T05:43:31.404Z,27.05
2024-05-09T05:44:01.489Z,27.10
2024-05-09T05:44:31.679Z,27.06
2024-05-09T05:45:01.672Z,27.08
2024-05-09T05:45:31.782Z,27.05
2024-05-09T05:46:01.851Z,27.09
2024-05-09T05:46:31.934Z,27.06
2024-05-09T05:47:02.081Z,27.06
2024-05-09T05:47:32.137Z,27.06
2024-05-09T05:48:02.193Z,27.09
2024-05-09T05:48:32.198Z,27.09
2024-05-09T05:49:02.281Z,27.12
2024-05-09T05:49:32.353Z,27.10
2024-05-09T05:50:02.995Z,27.13
2024-05-09T05:50:36.268Z,27.15
2024-05-09T05:51:04.544Z,27.15
2024-05-09T05:51:32.506Z,27.16
2024-05-09T05:52:02.572Z,27.13
2024-05-09T05:52:32.643Z,27.18
2024-05-09T05:53:02.807Z,27.19
2024-05-09T05:53:32.936Z,27.22
2024-05-09T05:54:02.781Z,27.20
2024-05-09T05:54:32.860Z,27.22
2024-05-09T05:55:02.974Z,27.19
2024-05-09T05:55:33.038Z,27.22
2024-05-09T05:56:03.157Z,27.20
2024-05-09T05:56:33.188Z,27.22
2024-05-09T05:57:03.183Z,27.20
2024-05-09T05:57:33.260Z,27.20
2024-05-09T05:58:03.333Z,27.23
2024-05-09T05:58:33.417Z,27.25
2024-05-09T05:59:03.497Z,27.25
2024-05-09T05:59:33.654Z,27.23
2024-05-09T06:00:05.618Z,27.23
2024-05-09T06:00:38.530Z,27.27
2024-05-09T06:01:03.720Z,27.26
2024-05-09T06:01:33.854Z,27.27
2024-05-09T06:02:03.824Z,27.32
2024-05-09T06:02:33.868Z,27.27
2024-05-09T06:03:03.976Z,27.29
2024-05-09T06:03:34.081Z,27.32
2024-05-09T06:04:04.036Z,27.32
2024-05-09T06:04:34.038Z,27.33
2024-05-09T06:05:04.140Z,27.32
2024-05-09T06:05:34.128Z,27.33
2024-05-09T06:06:04.458Z,27.34
2024-05-09T06:06:34.317Z,27.36
2024-05-09T06:07:04.380Z,27.33
2024-05-09T06:07:34.477Z,27.34
2024-05-09T06:08:04.743Z,27.32
2024-05-09T06:08:34.598Z,27.33
2024-05-09T06:09:04.540Z,27.34
2024-05-09T06:09:34.632Z,27.32
2024-05-09T06:10:09.293Z,27.34
2024-05-09T06:10:38.904Z,27.36
2024-05-09T06:11:04.933Z,27.34
2024-05-09T06:11:35.036Z,27.34
2024-05-09T06:12:05.116Z,27.37
2024-05-09T06:12:35.027Z,27.40
2024-05-09T06:13:05.088Z,27.40
2024-05-09T06:13:35.176Z,27.44
2024-05-09T06:14:05.337Z,27.42
2024-05-09T06:14:35.361Z,27.43
2024-05-09T06:15:05.441Z,27.47
2024-05-09T06:15:35.527Z,27.47
2024-05-09T06:16:05.592Z,27.46
2024-05-09T06:16:35.661Z,27.50
2024-05-09T06:17:05.773Z,27.52
2024-05-09T06:17:36.030Z,27.50
2024-05-09T06:18:06.227Z,27.49
2024-05-09T06:18:36.132Z,27.53
2024-05-09T06:19:06.004Z,27.54
2024-05-09T06:19:36.050Z,27.53
2024-05-09T06:20:11.146Z,27.53
2024-05-09T06:20:38.059Z,27.56
2024-05-09T06:21:06.154Z,27.57
2024-05-09T06:21:36.244Z,27.57
2024-05-09T06:22:06.305Z,27.54
2024-05-09T06:22:36.384Z,27.57
2024-05-09T06:23:06.945Z,27.60
2024-05-09T06:23:36.597Z,27.58
2024-05-09T06:24:06.848Z,27.58
2024-05-09T06:24:36.574Z,27.63
2024-05-09T06:25:06.641Z,27.61
2024-05-09T06:25:36.961Z,27.61
2024-05-09T06:26:06.776Z,27.64
2024-05-09T06:26:36.910Z,27.67
2024-05-09T06:27:06.893Z,27.65
2024-05-09T06:27:36.859Z,27.65
2024-05-09T06:28:07.009Z,27.63
2024-05-09T06:28:37.011Z,27.64
2024-05-09T06:29:07.164Z,27.71
2024-05-09T06:29:37.163Z,27.65
2024-05-09T06:30:09.944Z,27.71
2024-05-09T06:30:39.995Z,27.71
2024-05-09T06:31:07.216Z,27.70
2024-05-09T06:31:37.297Z,27.71
2024-05-09T06:32:07.458Z,27.70